sensor_id;sensor_type;location;lat;lon;timestamp;temperature;humidity
7676;DHT22;3880;51.464;-2.566;2022-10-17T00:00:39;16.20;99.90
7676;DHT22;3880;51.464;-2.566;2022-10-17T00:03:09;16.30;99.90
7676;DHT22;3880;51.464;-2.566;2022-10-17T00:05:40;16.20;99.90
7676;DHT22;3880;51.464;-2.566;2022-10-17T00:08:08;16.20;99.90
7676;DHT22;3880;51.464;-2.566;2022-10-17T00:10:39;16.20;99.90
7676;DHT22;3880;51.464;-2.566;2022-10-17T00:13:09;16.20;99.90
7676;DHT22;3880;51.464;-2.566;2022-10-17T00:15:36;16.20;99.90
7676;DHT22;3880;51.464;-2.566;2022-10-17T00:18:04;16.30;99.90
7676;DHT22;3880;51.464;-2.566;2022-10-17T00:20:34;16.30;99.90
7676;DHT22;3880;51.464;-2.566;2022-10-17T00:23:03;16.30;99.90
7676;DHT22;3880;51.464;-2.566;2022-10-17T00:25:31;16.20;99.90
7676;DHT22;3880;51.464;-2.566;2022-10-17T00:27:58;16.20;99.90
7676;DHT22;3880;51.464;-2.566;2022-10-17T00:30:29;16.10;99.90
7676;DHT22;3880;51.464;-2.566;2022-10-17T00:32:57;16.10;99.90
7676;DHT22;3880;51.464;-2.566;2022-10-17T00:35:26;16.10;99.90
7676;DHT22;3880;51.464;-2.566;2022-10-17T00:38:14;16.10;99.90
7676;DHT22;3880;51.464;-2.566;2022-10-17T00:40:54;16.10;99.90
7676;DHT22;3880;51.464;-2.566;2022-10-17T00:43:52;16.10;99.90
7676;DHT22;3880;51.464;-2.566;2022-10-17T00:46:22;16.10;99.90
7676;DHT22;3880;51.464;-2.566;2022-10-17T00:48:51;16.10;99.90
7676;DHT22;3880;51.464;-2.566;2022-10-17T00:51:24;16.20;99.90
7676;DHT22;3880;51.464;-2.566;2022-10-17T00:54:11;16.20;99.90
7676;DHT22;3880;51.464;-2.566;2022-10-17T00:56:49;16.20;99.90
7676;DHT22;3880;51.464;-2.566;2022-10-17T00:59:39;16.20;99.90
7676;DHT22;3880;51.464;-2.566;2022-10-17T01:02:27;16.10;99.90
7676;DHT22;3880;51.464;-2.566;2022-10-17T01:05:22;16.20;99.90
7676;DHT22;3880;51.464;-2.566;2022-10-17T01:08:04;16.20;99.90
7676;DHT22;3880;51.464;-2.566;2022-10-17T01:13:43;16.20;99.90
7676;DHT22;3880;51.464;-2.566;2022-10-17T01:16:31;16.20;99.90
7676;DHT22;3880;51.464;-2.566;2022-10-17T01:19:23;16.20;99.90
7676;DHT22;3880;51.464;-2.566;2022-10-17T01:22:00;16.10;99.90
7676;DHT22;3880;51.464;-2.566;2022-10-17T01:24:47;16.20;99.90
7676;DHT22;3880;51.464;-2.566;2022-10-17T01:27:42;16.30;99.90
7676;DHT22;3880;51.464;-2.566;2022-10-17T01:33:26;16.30;99.90
7676;DHT22;3880;51.464;-2.566;2022-10-17T01:35:58;16.20;99.90
7676;DHT22;3880;51.464;-2.566;2022-10-17T01:38:30;16.20;99.90
7676;DHT22;3880;51.464;-2.566;2022-10-17T01:41:02;16.20;99.90
7676;DHT22;3880;51.464;-2.566;2022-10-17T01:43:35;16.20;99.90
7676;DHT22;3880;51.464;-2.566;2022-10-17T01:46:10;16.20;99.90
7676;DHT22;3880;51.464;-2.566;2022-10-17T01:48:43;16.30;99.90
7676;DHT22;3880;51.464;-2.566;2022-10-17T01:51:16;16.40;99.90
7676;DHT22;3880;51.464;-2.566;2022-10-17T01:53:51;16.30;99.90
7676;DHT22;3880;51.464;-2.566;2022-10-17T01:56:20;16.30;99.90
7676;DHT22;3880;51.464;-2.566;2022-10-17T01:58:50;16.30;99.90
7676;DHT22;3880;51.464;-2.566;2022-10-17T02:01:20;16.30;99.90
7676;DHT22;3880;51.464;-2.566;2022-10-17T02:03:53;16.30;99.90
7676;DHT22;3880;51.464;-2.566;2022-10-17T02:06:25;16.30;99.90
7676;DHT22;3880;51.464;-2.566;2022-10-17T02:08:52;16.30;99.90
7676;DHT22;3880;51.464;-2.566;2022-10-17T02:11:21;16.20;99.90
7676;DHT22;3880;51.464;-2.566;2022-10-17T02:14:09;16.20;99.90
7676;DHT22;3880;51.464;-2.566;2022-10-17T02:16:44;16.30;99.90
7676;DHT22;3880;51.464;-2.566;2022-10-17T02:19:29;16.30;99.90
7676;DHT22;3880;51.464;-2.566;2022-10-17T02:22:13;16.30;99.90
7676;DHT22;3880;51.464;-2.566;2022-10-17T02:24:50;16.30;99.90
7676;DHT22;3880;51.464;-2.566;2022-10-17T02:27:26;16.30;99.90
7676;DHT22;3880;51.464;-2.566;2022-10-17T02:29:59;16.20;99.90
7676;DHT22;3880;51.464;-2.566;2022-10-17T02:32:38;16.30;99.90
7676;DHT22;3880;51.464;-2.566;2022-10-17T02:35:21;16.30;99.90
7676;DHT22;3880;51.464;-2.566;2022-10-17T02:38:09;16.30;99.90
7676;DHT22;3880;51.464;-2.566;2022-10-17T02:40:45;16.20;99.90
7676;DHT22;3880;51.464;-2.566;2022-10-17T02:43:18;16.20;99.90
7676;DHT22;3880;51.464;-2.566;2022-10-17T02:45:50;16.20;99.90
7676;DHT22;3880;51.464;-2.566;2022-10-17T02:48:24;16.20;99.90
7676;DHT22;3880;51.464;-2.566;2022-10-17T02:51:08;16.20;99.90
7676;DHT22;3880;51.464;-2.566;2022-10-17T02:53:50;16.20;99.90
7676;DHT22;3880;51.464;-2.566;2022-10-17T02:56:20;16.30;99.90
7676;DHT22;3880;51.464;-2.566;2022-10-17T02:58:50;16.30;99.90
7676;DHT22;3880;51.464;-2.566;2022-10-17T03:01:21;16.20;99.90
7676;DHT22;3880;51.464;-2.566;2022-10-17T03:03:49;16.20;99.90
7676;DHT22;3880;51.464;-2.566;2022-10-17T03:06:20;16.20;99.90
7676;DHT22;3880;51.464;-2.566;2022-10-17T03:08:50;16.20;99.90
7676;DHT22;3880;51.464;-2.566;2022-10-17T03:11:23;16.20;99.90
7676;DHT22;3880;51.464;-2.566;2022-10-17T03:13:58;16.10;99.90
7676;DHT22;3880;51.464;-2.566;2022-10-17T03:16:41;16.00;99.90
7676;DHT22;3880;51.464;-2.566;2022-10-17T03:19:19;15.90;99.90
7676;DHT22;3880;51.464;-2.566;2022-10-17T03:21:55;15.90;99.90
7676;DHT22;3880;51.464;-2.566;2022-10-17T03:24:26;15.80;99.90
7676;DHT22;3880;51.464;-2.566;2022-10-17T03:27:08;15.80;99.90
7676;DHT22;3880;51.464;-2.566;2022-10-17T03:29:38;15.80;99.90
7676;DHT22;3880;51.464;-2.566;2022-10-17T03:32:10;15.70;99.90
7676;DHT22;3880;51.464;-2.566;2022-10-17T03:34:43;15.70;99.90
7676;DHT22;3880;51.464;-2.566;2022-10-17T03:37:14;15.70;99.90
7676;DHT22;3880;51.464;-2.566;2022-10-17T03:44:54;15.60;99.90
7676;DHT22;3880;51.464;-2.566;2022-10-17T03:47:28;15.60;99.90
7676;DHT22;3880;51.464;-2.566;2022-10-17T03:50:00;15.50;99.90
7676;DHT22;3880;51.464;-2.566;2022-10-17T03:52:47;15.50;99.90
7676;DHT22;3880;51.464;-2.566;2022-10-17T03:55:24;15.60;99.90
7676;DHT22;3880;51.464;-2.566;2022-10-17T03:58:05;15.50;99.90
7676;DHT22;3880;51.464;-2.566;2022-10-17T04:26:44;15.20;99.90
7676;DHT22;3880;51.464;-2.566;2022-10-17T04:29:15;15.20;99.90
7676;DHT22;3880;51.464;-2.566;2022-10-17T04:31:42;15.20;99.90
7676;DHT22;3880;51.464;-2.566;2022-10-17T04:34:10;15.10;99.90
7676;DHT22;3880;51.464;-2.566;2022-10-17T04:36:39;15.10;99.90
7676;DHT22;3880;51.464;-2.566;2022-10-17T04:39:19;15.10;99.90
7676;DHT22;3880;51.464;-2.566;2022-10-17T04:41:50;15.10;99.90
7676;DHT22;3880;51.464;-2.566;2022-10-17T04:44:22;15.10;99.90
7676;DHT22;3880;51.464;-2.566;2022-10-17T04:46:50;15.00;99.90
7676;DHT22;3880;51.464;-2.566;2022-10-17T04:49:18;14.90;99.90
7676;DHT22;3880;51.464;-2.566;2022-10-17T04:51:49;14.90;99.90
7676;DHT22;3880;51.464;-2.566;2022-10-17T04:54:21;14.90;99.90
7676;DHT22;3880;51.464;-2.566;2022-10-17T04:56:50;14.90;99.90
7676;DHT22;3880;51.464;-2.566;2022-10-17T04:59:18;14.80;99.90
7676;DHT22;3880;51.464;-2.566;2022-10-17T05:01:47;14.70;99.90
7676;DHT22;3880;51.464;-2.566;2022-10-17T05:04:14;14.60;99.90
7676;DHT22;3880;51.464;-2.566;2022-10-17T05:06:42;14.60;99.90
7676;DHT22;3880;51.464;-2.566;2022-10-17T05:09:09;14.60;99.90
7676;DHT22;3880;51.464;-2.566;2022-10-17T05:11:36;14.50;99.90
7676;DHT22;3880;51.464;-2.566;2022-10-17T05:14:05;14.50;99.90
7676;DHT22;3880;51.464;-2.566;2022-10-17T05:16:34;14.40;99.90
7676;DHT22;3880;51.464;-2.566;2022-10-17T05:19:05;14.50;99.90
7676;DHT22;3880;51.464;-2.566;2022-10-17T05:21:39;14.50;99.90
7676;DHT22;3880;51.464;-2.566;2022-10-17T05:24:10;14.50;99.90
7676;DHT22;3880;51.464;-2.566;2022-10-17T05:26:43;14.50;99.90
7676;DHT22;3880;51.464;-2.566;2022-10-17T05:29:12;14.50;99.90
7676;DHT22;3880;51.464;-2.566;2022-10-17T05:31:45;14.50;99.90
7676;DHT22;3880;51.464;-2.566;2022-10-17T05:34:15;14.50;99.90
7676;DHT22;3880;51.464;-2.566;2022-10-17T05:36:47;14.40;99.90
7676;DHT22;3880;51.464;-2.566;2022-10-17T05:39:16;14.50;99.90
7676;DHT22;3880;51.464;-2.566;2022-10-17T05:41:48;14.60;99.90
7676;DHT22;3880;51.464;-2.566;2022-10-17T05:44:22;14.50;99.90
7676;DHT22;3880;51.464;-2.566;2022-10-17T05:47:03;14.50;99.90
7676;DHT22;3880;51.464;-2.566;2022-10-17T05:49:53;14.50;99.90
7676;DHT22;3880;51.464;-2.566;2022-10-17T05:52:47;14.40;99.90
7676;DHT22;3880;51.464;-2.566;2022-10-17T05:55:42;14.50;99.90
7676;DHT22;3880;51.464;-2.566;2022-10-17T05:58:14;14.40;99.90
7676;DHT22;3880;51.464;-2.566;2022-10-17T06:00:43;14.40;99.90
7676;DHT22;3880;51.464;-2.566;2022-10-17T06:03:11;14.40;99.90
7676;DHT22;3880;51.464;-2.566;2022-10-17T06:05:38;14.40;99.90
7676;DHT22;3880;51.464;-2.566;2022-10-17T06:08:05;14.30;99.90
7676;DHT22;3880;51.464;-2.566;2022-10-17T06:10:33;14.30;99.90
7676;DHT22;3880;51.464;-2.566;2022-10-17T06:13:00;14.40;99.90
7676;DHT22;3880;51.464;-2.566;2022-10-17T06:15:27;14.30;99.90
7676;DHT22;3880;51.464;-2.566;2022-10-17T06:17:56;14.40;99.90
7676;DHT22;3880;51.464;-2.566;2022-10-17T06:20:24;14.40;99.90
7676;DHT22;3880;51.464;-2.566;2022-10-17T06:22:52;14.40;99.90
7676;DHT22;3880;51.464;-2.566;2022-10-17T06:25:21;14.40;99.90
7676;DHT22;3880;51.464;-2.566;2022-10-17T06:27:55;14.40;99.90
7676;DHT22;3880;51.464;-2.566;2022-10-17T06:30:32;14.40;99.90
7676;DHT22;3880;51.464;-2.566;2022-10-17T06:33:14;14.40;99.90
7676;DHT22;3880;51.464;-2.566;2022-10-17T06:36:01;14.40;99.90
7676;DHT22;3880;51.464;-2.566;2022-10-17T06:38:41;14.30;99.90
7676;DHT22;3880;51.464;-2.566;2022-10-17T06:41:24;14.30;99.90
7676;DHT22;3880;51.464;-2.566;2022-10-17T06:47:06;14.30;99.90
7676;DHT22;3880;51.464;-2.566;2022-10-17T06:49:44;14.30;99.90
7676;DHT22;3880;51.464;-2.566;2022-10-17T06:52:56;14.40;99.90
7676;DHT22;3880;51.464;-2.566;2022-10-17T06:55:41;14.30;99.90
7676;DHT22;3880;51.464;-2.566;2022-10-17T06:58:12;14.30;99.90
7676;DHT22;3880;51.464;-2.566;2022-10-17T07:00:42;14.40;99.90
7676;DHT22;3880;51.464;-2.566;2022-10-17T07:03:10;14.40;99.90
7676;DHT22;3880;51.464;-2.566;2022-10-17T07:05:39;14.30;99.90
7676;DHT22;3880;51.464;-2.566;2022-10-17T07:08:10;14.40;99.90
7676;DHT22;3880;51.464;-2.566;2022-10-17T07:10:43;14.30;99.90
7676;DHT22;3880;51.464;-2.566;2022-10-17T07:13:18;14.30;99.90
7676;DHT22;3880;51.464;-2.566;2022-10-17T07:15:53;14.30;99.90
7676;DHT22;3880;51.464;-2.566;2022-10-17T07:18:28;14.40;99.90
7676;DHT22;3880;51.464;-2.566;2022-10-17T07:21:02;14.30;99.90
7676;DHT22;3880;51.464;-2.566;2022-10-17T07:23:35;14.30;99.90
7676;DHT22;3880;51.464;-2.566;2022-10-17T07:26:12;14.30;99.90
7676;DHT22;3880;51.464;-2.566;2022-10-17T07:28:56;14.40;99.90
7676;DHT22;3880;51.464;-2.566;2022-10-17T07:31:34;14.40;99.90
7676;DHT22;3880;51.464;-2.566;2022-10-17T07:34:04;14.50;99.90
7676;DHT22;3880;51.464;-2.566;2022-10-17T07:36:38;14.50;99.90
7676;DHT22;3880;51.464;-2.566;2022-10-17T07:39:09;14.50;99.90
7676;DHT22;3880;51.464;-2.566;2022-10-17T07:41:42;14.60;99.90
7676;DHT22;3880;51.464;-2.566;2022-10-17T07:44:13;14.70;99.90
7676;DHT22;3880;51.464;-2.566;2022-10-17T07:46:42;14.70;99.90
7676;DHT22;3880;51.464;-2.566;2022-10-17T07:49:10;14.70;99.90
7676;DHT22;3880;51.464;-2.566;2022-10-17T07:51:39;14.70;99.90
7676;DHT22;3880;51.464;-2.566;2022-10-17T07:54:12;14.80;99.90
7676;DHT22;3880;51.464;-2.566;2022-10-17T07:56:45;14.80;99.90
7676;DHT22;3880;51.464;-2.566;2022-10-17T07:59:28;14.80;99.90
7676;DHT22;3880;51.464;-2.566;2022-10-17T08:01:56;15.00;99.90
7676;DHT22;3880;51.464;-2.566;2022-10-17T08:04:24;15.00;99.90
7676;DHT22;3880;51.464;-2.566;2022-10-17T08:06:53;15.10;99.90
7676;DHT22;3880;51.464;-2.566;2022-10-17T08:09:21;15.40;99.90
7676;DHT22;3880;51.464;-2.566;2022-10-17T08:11:49;15.60;99.90
7676;DHT22;3880;51.464;-2.566;2022-10-17T08:14:19;15.70;99.90
7676;DHT22;3880;51.464;-2.566;2022-10-17T08:16:47;15.70;99.90
7676;DHT22;3880;51.464;-2.566;2022-10-17T08:19:15;15.60;99.90
7676;DHT22;3880;51.464;-2.566;2022-10-17T08:21:43;15.40;99.90
7676;DHT22;3880;51.464;-2.566;2022-10-17T08:24:13;15.30;99.90
7676;DHT22;3880;51.464;-2.566;2022-10-17T08:26:40;15.40;99.90
7676;DHT22;3880;51.464;-2.566;2022-10-17T08:29:12;15.50;99.90
7676;DHT22;3880;51.464;-2.566;2022-10-17T08:31:39;15.90;99.90
7676;DHT22;3880;51.464;-2.566;2022-10-17T08:34:07;16.50;99.90
7676;DHT22;3880;51.464;-2.566;2022-10-17T08:36:39;17.00;99.90
7676;DHT22;3880;51.464;-2.566;2022-10-17T08:39:07;18.00;99.90
7676;DHT22;3880;51.464;-2.566;2022-10-17T08:41:46;18.90;99.90
7676;DHT22;3880;51.464;-2.566;2022-10-17T08:44:24;19.20;99.90
7676;DHT22;3880;51.464;-2.566;2022-10-17T08:46:58;19.30;99.90
7676;DHT22;3880;51.464;-2.566;2022-10-17T08:49:33;19.50;99.90
7676;DHT22;3880;51.464;-2.566;2022-10-17T08:52:10;20.40;99.90
7676;DHT22;3880;51.464;-2.566;2022-10-17T08:54:42;21.00;99.90
7676;DHT22;3880;51.464;-2.566;2022-10-17T08:57:16;21.70;99.90
7676;DHT22;3880;51.464;-2.566;2022-10-17T08:59:49;21.10;99.90
7676;DHT22;3880;51.464;-2.566;2022-10-17T09:05:26;21.20;99.90
7676;DHT22;3880;51.464;-2.566;2022-10-17T09:08:04;20.70;99.90
7676;DHT22;3880;51.464;-2.566;2022-10-17T09:10:45;21.00;99.90
7676;DHT22;3880;51.464;-2.566;2022-10-17T09:13:25;20.80;99.90
7676;DHT22;3880;51.464;-2.566;2022-10-17T09:16:01;20.80;99.90
7676;DHT22;3880;51.464;-2.566;2022-10-17T09:18:34;20.70;99.90
7676;DHT22;3880;51.464;-2.566;2022-10-17T09:21:13;20.40;99.90
7676;DHT22;3880;51.464;-2.566;2022-10-17T09:23:44;20.10;99.90
7676;DHT22;3880;51.464;-2.566;2022-10-17T09:26:14;20.50;99.90
7676;DHT22;3880;51.464;-2.566;2022-10-17T09:28:50;20.70;99.90
7676;DHT22;3880;51.464;-2.566;2022-10-17T09:31:20;21.80;99.90
7676;DHT22;3880;51.464;-2.566;2022-10-17T09:33:50;22.90;99.90
7676;DHT22;3880;51.464;-2.566;2022-10-17T09:36:20;22.20;99.90
7676;DHT22;3880;51.464;-2.566;2022-10-17T09:38:51;22.70;99.90
7676;DHT22;3880;51.464;-2.566;2022-10-17T09:41:20;23.00;99.90
7676;DHT22;3880;51.464;-2.566;2022-10-17T09:43:51;23.90;99.90
7676;DHT22;3880;51.464;-2.566;2022-10-17T09:46:25;23.60;99.90
7676;DHT22;3880;51.464;-2.566;2022-10-17T09:49:00;23.30;99.90
7676;DHT22;3880;51.464;-2.566;2022-10-17T09:51:30;22.50;99.90
7676;DHT22;3880;51.464;-2.566;2022-10-17T09:54:02;22.40;99.90
7676;DHT22;3880;51.464;-2.566;2022-10-17T09:56:29;22.50;99.90
7676;DHT22;3880;51.464;-2.566;2022-10-17T09:58:58;22.80;99.90
7676;DHT22;3880;51.464;-2.566;2022-10-17T10:01:27;23.50;99.90
7676;DHT22;3880;51.464;-2.566;2022-10-17T10:04:16;23.10;99.90
7676;DHT22;3880;51.464;-2.566;2022-10-17T10:07:02;23.80;99.90
7676;DHT22;3880;51.464;-2.566;2022-10-17T10:09:31;25.00;99.90
7676;DHT22;3880;51.464;-2.566;2022-10-17T10:12:01;25.00;99.90
7676;DHT22;3880;51.464;-2.566;2022-10-17T10:14:33;23.80;99.90
7676;DHT22;3880;51.464;-2.566;2022-10-17T10:17:02;23.60;99.90
7676;DHT22;3880;51.464;-2.566;2022-10-17T10:19:32;24.00;99.90
7676;DHT22;3880;51.464;-2.566;2022-10-17T10:22:01;24.30;99.90
7676;DHT22;3880;51.464;-2.566;2022-10-17T10:24:29;24.20;99.90
7676;DHT22;3880;51.464;-2.566;2022-10-17T10:26:58;23.80;99.90
7676;DHT22;3880;51.464;-2.566;2022-10-17T10:29:30;24.30;99.90
7676;DHT22;3880;51.464;-2.566;2022-10-17T10:32:08;24.70;99.90
7676;DHT22;3880;51.464;-2.566;2022-10-17T10:34:37;24.30;99.90
7676;DHT22;3880;51.464;-2.566;2022-10-17T10:37:18;25.10;99.90
7676;DHT22;3880;51.464;-2.566;2022-10-17T10:39:48;25.50;99.90
7676;DHT22;3880;51.464;-2.566;2022-10-17T10:42:20;23.70;99.90
7676;DHT22;3880;51.464;-2.566;2022-10-17T10:44:51;23.80;99.90
7676;DHT22;3880;51.464;-2.566;2022-10-17T10:47:23;24.60;99.90
7676;DHT22;3880;51.464;-2.566;2022-10-17T10:50:05;25.50;99.90
7676;DHT22;3880;51.464;-2.566;2022-10-17T10:52:44;25.90;99.90
7676;DHT22;3880;51.464;-2.566;2022-10-17T10:55:20;26.20;99.90
7676;DHT22;3880;51.464;-2.566;2022-10-17T10:57:54;26.30;99.90
7676;DHT22;3880;51.464;-2.566;2022-10-17T11:00:27;25.70;99.90
7676;DHT22;3880;51.464;-2.566;2022-10-17T11:03:00;25.40;99.90
7676;DHT22;3880;51.464;-2.566;2022-10-17T11:05:38;26.10;99.90
7676;DHT22;3880;51.464;-2.566;2022-10-17T11:08:12;27.20;99.90
7676;DHT22;3880;51.464;-2.566;2022-10-17T11:10:55;26.00;99.90
7676;DHT22;3880;51.464;-2.566;2022-10-17T11:13:27;25.40;99.90
7676;DHT22;3880;51.464;-2.566;2022-10-17T11:16:01;26.10;99.90
7676;DHT22;3880;51.464;-2.566;2022-10-17T11:18:34;25.60;99.90
7676;DHT22;3880;51.464;-2.566;2022-10-17T11:21:11;26.70;99.90
7676;DHT22;3880;51.464;-2.566;2022-10-17T11:23:43;26.80;99.90
7676;DHT22;3880;51.464;-2.566;2022-10-17T11:26:18;26.90;99.90
7676;DHT22;3880;51.464;-2.566;2022-10-17T11:28:51;26.10;99.90
7676;DHT22;3880;51.464;-2.566;2022-10-17T11:31:21;23.70;99.90
7676;DHT22;3880;51.464;-2.566;2022-10-17T11:33:51;23.10;99.90
7676;DHT22;3880;51.464;-2.566;2022-10-17T11:36:23;22.20;99.90
7676;DHT22;3880;51.464;-2.566;2022-10-17T11:38:55;21.00;99.90
7676;DHT22;3880;51.464;-2.566;2022-10-17T11:41:30;20.60;99.90
7676;DHT22;3880;51.464;-2.566;2022-10-17T11:44:01;21.00;99.90
7676;DHT22;3880;51.464;-2.566;2022-10-17T11:46:34;21.70;99.90
7676;DHT22;3880;51.464;-2.566;2022-10-17T11:49:09;22.80;99.90
7676;DHT22;3880;51.464;-2.566;2022-10-17T11:51:45;22.80;99.90
7676;DHT22;3880;51.464;-2.566;2022-10-17T11:54:25;21.80;99.90
7676;DHT22;3880;51.464;-2.566;2022-10-17T11:57:09;22.00;99.90
7676;DHT22;3880;51.464;-2.566;2022-10-17T11:59:55;23.20;99.90
7676;DHT22;3880;51.464;-2.566;2022-10-17T12:02:31;23.00;99.90
7676;DHT22;3880;51.464;-2.566;2022-10-17T12:05:02;22.30;99.90
7676;DHT22;3880;51.464;-2.566;2022-10-17T12:07:47;21.40;99.90
7676;DHT22;3880;51.464;-2.566;2022-10-17T12:10:28;20.30;99.90
7676;DHT22;3880;51.464;-2.566;2022-10-17T12:12:56;20.80;99.90
7676;DHT22;3880;51.464;-2.566;2022-10-17T12:15:44;21.30;99.90
7676;DHT22;3880;51.464;-2.566;2022-10-17T12:18:16;21.30;99.90
7676;DHT22;3880;51.464;-2.566;2022-10-17T12:20:54;22.30;99.90
7676;DHT22;3880;51.464;-2.566;2022-10-17T12:23:26;22.50;99.90
7676;DHT22;3880;51.464;-2.566;2022-10-17T12:25:54;23.90;99.90
7676;DHT22;3880;51.464;-2.566;2022-10-17T12:28:26;25.10;99.90
7676;DHT22;3880;51.464;-2.566;2022-10-17T12:30:57;26.50;99.90
7676;DHT22;3880;51.464;-2.566;2022-10-17T12:33:33;26.40;99.90
7676;DHT22;3880;51.464;-2.566;2022-10-17T12:42:44;26.80;99.90
7676;DHT22;3880;51.464;-2.566;2022-10-17T12:45:43;26.40;99.90
7676;DHT22;3880;51.464;-2.566;2022-10-17T12:48:10;26.30;99.90
7676;DHT22;3880;51.464;-2.566;2022-10-17T12:51:00;26.70;99.90
7676;DHT22;3880;51.464;-2.566;2022-10-17T12:53:37;26.50;99.90
7676;DHT22;3880;51.464;-2.566;2022-10-17T12:56:07;26.30;99.90
7676;DHT22;3880;51.464;-2.566;2022-10-17T12:58:35;25.40;99.90
7676;DHT22;3880;51.464;-2.566;2022-10-17T13:01:03;23.80;99.90
7676;DHT22;3880;51.464;-2.566;2022-10-17T13:03:39;23.10;99.90
7676;DHT22;3880;51.464;-2.566;2022-10-17T13:06:18;22.60;99.90
7676;DHT22;3880;51.464;-2.566;2022-10-17T13:08:49;23.50;99.90
7676;DHT22;3880;51.464;-2.566;2022-10-17T13:11:21;24.70;99.90
7676;DHT22;3880;51.464;-2.566;2022-10-17T13:13:52;24.90;99.90
7676;DHT22;3880;51.464;-2.566;2022-10-17T13:16:27;24.90;99.90
7676;DHT22;3880;51.464;-2.566;2022-10-17T13:18:54;25.70;99.90
7676;DHT22;3880;51.464;-2.566;2022-10-17T13:21:24;26.70;99.90
7676;DHT22;3880;51.464;-2.566;2022-10-17T13:23:52;26.50;99.90
7676;DHT22;3880;51.464;-2.566;2022-10-17T13:26:21;26.00;99.90
7676;DHT22;3880;51.464;-2.566;2022-10-17T13:29:00;26.10;99.90
7676;DHT22;3880;51.464;-2.566;2022-10-17T13:31:31;26.70;99.90
7676;DHT22;3880;51.464;-2.566;2022-10-17T13:34:00;26.60;99.90
7676;DHT22;3880;51.464;-2.566;2022-10-17T13:36:29;26.60;99.90
7676;DHT22;3880;51.464;-2.566;2022-10-17T13:38:58;26.40;99.90
7676;DHT22;3880;51.464;-2.566;2022-10-17T13:41:27;26.20;99.90
7676;DHT22;3880;51.464;-2.566;2022-10-17T13:43:56;26.40;99.90
7676;DHT22;3880;51.464;-2.566;2022-10-17T13:46:27;26.40;99.90
7676;DHT22;3880;51.464;-2.566;2022-10-17T13:48:55;26.00;99.90
7676;DHT22;3880;51.464;-2.566;2022-10-17T13:51:24;24.70;99.90
7676;DHT22;3880;51.464;-2.566;2022-10-17T13:53:53;24.20;99.90
7676;DHT22;3880;51.464;-2.566;2022-10-17T13:56:22;24.10;99.90
7676;DHT22;3880;51.464;-2.566;2022-10-17T13:58:51;23.70;99.90
7676;DHT22;3880;51.464;-2.566;2022-10-17T14:01:20;23.30;99.90
7676;DHT22;3880;51.464;-2.566;2022-10-17T14:03:48;24.00;99.90
7676;DHT22;3880;51.464;-2.566;2022-10-17T14:06:18;23.90;99.90
7676;DHT22;3880;51.464;-2.566;2022-10-17T14:08:51;23.70;99.90
7676;DHT22;3880;51.464;-2.566;2022-10-17T14:11:29;22.80;99.90
7676;DHT22;3880;51.464;-2.566;2022-10-17T14:13:59;21.90;99.90
7676;DHT22;3880;51.464;-2.566;2022-10-17T14:16:33;21.70;99.90
7676;DHT22;3880;51.464;-2.566;2022-10-17T14:19:00;21.80;99.90
7676;DHT22;3880;51.464;-2.566;2022-10-17T14:21:28;21.30;99.90
7676;DHT22;3880;51.464;-2.566;2022-10-17T14:24:23;21.40;99.90
7676;DHT22;3880;51.464;-2.566;2022-10-17T14:26:54;21.80;99.90
7676;DHT22;3880;51.464;-2.566;2022-10-17T14:29:25;21.70;99.90
7676;DHT22;3880;51.464;-2.566;2022-10-17T14:32:04;21.50;99.90
7676;DHT22;3880;51.464;-2.566;2022-10-17T14:34:35;21.20;99.90
7676;DHT22;3880;51.464;-2.566;2022-10-17T14:37:08;21.00;99.90
7676;DHT22;3880;51.464;-2.566;2022-10-17T14:39:36;20.80;99.90
7676;DHT22;3880;51.464;-2.566;2022-10-17T14:42:04;20.90;99.90
7676;DHT22;3880;51.464;-2.566;2022-10-17T14:44:33;21.00;99.90
7676;DHT22;3880;51.464;-2.566;2022-10-17T14:47:03;21.10;99.90
7676;DHT22;3880;51.464;-2.566;2022-10-17T14:49:35;20.90;99.90
7676;DHT22;3880;51.464;-2.566;2022-10-17T14:52:25;20.50;99.90
7676;DHT22;3880;51.464;-2.566;2022-10-17T14:54:52;20.10;99.90
7676;DHT22;3880;51.464;-2.566;2022-10-17T14:57:26;19.90;99.90
7676;DHT22;3880;51.464;-2.566;2022-10-17T14:59:54;19.80;99.90
7676;DHT22;3880;51.464;-2.566;2022-10-17T15:02:23;19.80;99.90
7676;DHT22;3880;51.464;-2.566;2022-10-17T15:04:50;19.70;99.90
7676;DHT22;3880;51.464;-2.566;2022-10-17T15:07:17;19.70;99.90
7676;DHT22;3880;51.464;-2.566;2022-10-17T15:09:47;20.10;99.90
7676;DHT22;3880;51.464;-2.566;2022-10-17T15:12:16;20.10;99.90
7676;DHT22;3880;51.464;-2.566;2022-10-17T15:14:45;20.10;99.90
7676;DHT22;3880;51.464;-2.566;2022-10-17T15:17:14;20.10;99.90
7676;DHT22;3880;51.464;-2.566;2022-10-17T15:19:41;20.10;99.90
7676;DHT22;3880;51.464;-2.566;2022-10-17T15:22:08;20.30;99.90
7676;DHT22;3880;51.464;-2.566;2022-10-17T15:24:35;20.10;99.90
7676;DHT22;3880;51.464;-2.566;2022-10-17T15:27:06;20.00;99.90
7676;DHT22;3880;51.464;-2.566;2022-10-17T15:29:47;20.10;99.90
7676;DHT22;3880;51.464;-2.566;2022-10-17T15:32:14;20.60;99.90
7676;DHT22;3880;51.464;-2.566;2022-10-17T15:34:42;20.90;99.90
7676;DHT22;3880;51.464;-2.566;2022-10-17T15:37:15;21.70;99.90
7676;DHT22;3880;51.464;-2.566;2022-10-17T15:39:43;22.20;99.90
7676;DHT22;3880;51.464;-2.566;2022-10-17T15:42:12;22.40;99.90
7676;DHT22;3880;51.464;-2.566;2022-10-17T15:44:39;22.70;99.90
7676;DHT22;3880;51.464;-2.566;2022-10-17T15:47:21;23.40;99.90
7676;DHT22;3880;51.464;-2.566;2022-10-17T15:49:48;24.50;99.90
7676;DHT22;3880;51.464;-2.566;2022-10-17T15:52:15;25.50;99.90
7676;DHT22;3880;51.464;-2.566;2022-10-17T15:54:42;25.90;99.90
7676;DHT22;3880;51.464;-2.566;2022-10-17T15:57:17;26.30;99.90
7676;DHT22;3880;51.464;-2.566;2022-10-17T15:59:44;26.60;99.90
7676;DHT22;3880;51.464;-2.566;2022-10-17T16:02:15;26.60;99.90
7676;DHT22;3880;51.464;-2.566;2022-10-17T16:04:43;25.40;99.90
7676;DHT22;3880;51.464;-2.566;2022-10-17T16:07:10;24.70;99.90
7676;DHT22;3880;51.464;-2.566;2022-10-17T16:09:37;24.60;99.90
7676;DHT22;3880;51.464;-2.566;2022-10-17T16:12:05;24.50;99.90
7676;DHT22;3880;51.464;-2.566;2022-10-17T16:14:36;24.40;99.90
7676;DHT22;3880;51.464;-2.566;2022-10-17T16:17:03;24.80;99.90
7676;DHT22;3880;51.464;-2.566;2022-10-17T16:19:31;24.50;99.90
7676;DHT22;3880;51.464;-2.566;2022-10-17T16:21:59;23.90;99.90
7676;DHT22;3880;51.464;-2.566;2022-10-17T16:24:27;23.30;99.90
7676;DHT22;3880;51.464;-2.566;2022-10-17T16:26:54;22.70;99.90
7676;DHT22;3880;51.464;-2.566;2022-10-17T16:29:21;22.30;99.90
7676;DHT22;3880;51.464;-2.566;2022-10-17T16:31:48;21.40;99.90
7676;DHT22;3880;51.464;-2.566;2022-10-17T16:34:15;20.70;99.90
7676;DHT22;3880;51.464;-2.566;2022-10-17T16:36:44;20.50;99.90
7676;DHT22;3880;51.464;-2.566;2022-10-17T16:39:11;20.30;99.90
7676;DHT22;3880;51.464;-2.566;2022-10-17T16:41:38;20.10;99.90
7676;DHT22;3880;51.464;-2.566;2022-10-17T16:44:07;19.90;99.90
7676;DHT22;3880;51.464;-2.566;2022-10-17T16:46:37;19.80;99.90
7676;DHT22;3880;51.464;-2.566;2022-10-17T16:49:05;19.60;99.90
7676;DHT22;3880;51.464;-2.566;2022-10-17T16:51:33;19.40;99.90
7676;DHT22;3880;51.464;-2.566;2022-10-17T16:54:03;19.10;99.90
7676;DHT22;3880;51.464;-2.566;2022-10-17T16:56:30;19.00;99.90
7676;DHT22;3880;51.464;-2.566;2022-10-17T16:58:58;19.00;99.90
7676;DHT22;3880;51.464;-2.566;2022-10-17T17:01:26;18.90;99.90
7676;DHT22;3880;51.464;-2.566;2022-10-17T17:03:54;18.70;99.90
7676;DHT22;3880;51.464;-2.566;2022-10-17T17:06:23;18.60;99.90
7676;DHT22;3880;51.464;-2.566;2022-10-17T17:08:51;18.60;99.90
7676;DHT22;3880;51.464;-2.566;2022-10-17T17:11:21;18.40;99.90